createdAt,value
2022-12-18T00:05:13.579Z,8.3
2022-12-18T00:10:48.237Z,8.3
2022-12-18T00:16:23.213Z,8.3
2022-12-18T00:22:07.971Z,8.3
2022-12-18T00:27:43.119Z,8.2
2022-12-18T00:33:18.378Z,8.2
2022-12-18T00:38:54.462Z,8.2
2022-12-18T00:44:29.550Z,8.2
2022-12-18T00:50:05.462Z,8.2
2022-12-18T00:55:40.827Z,8.2
2022-12-18T01:01:17.197Z,8.2
2022-12-18T01:06:54.536Z,8.2
2022-12-18T01:12:30.024Z,8.2
2022-12-18T01:18:08.865Z,8.2
2022-12-18T01:23:44.220Z,8.3
2022-12-18T01:29:56.656Z,8.3
2022-12-18T01:35:31.530Z,8.3
2022-12-18T01:41:06.273Z,8.5
2022-12-18T01:47:03.726Z,8.6
2022-12-18T01:52:36.740Z,8.7
2022-12-18T01:58:11.717Z,8.8
2022-12-18T02:04:00.100Z,8.9
2022-12-18T02:09:35.530Z,8.9
2022-12-18T02:15:32.360Z,8.8
2022-12-18T02:21:08.570Z,8.8
2022-12-18T02:26:54.204Z,8.7
2022-12-18T02:32:56.404Z,8.6
2022-12-18T02:38:33.270Z,8.6
2022-12-18T02:44:09.117Z,8.5
2022-12-18T02:49:51.335Z,8.4
2022-12-18T02:55:37.681Z,8.4
2022-12-18T03:01:16.703Z,8.3
2022-12-18T03:07:01.263Z,8.3
2022-12-18T03:12:38.799Z,8.4
2022-12-18T03:18:13.495Z,8.4
2022-12-18T03:23:48.223Z,8.3
2022-12-18T03:29:24.702Z,8.3
2022-12-18T03:35:00.533Z,8.6
2022-12-18T03:40:35.780Z,8.8
2022-12-18T03:46:34.361Z,9
2022-12-18T03:52:07.387Z,9
2022-12-18T03:57:43.201Z,8.9
2022-12-18T04:03:22.649Z,8.6
2022-12-18T04:09:02.612Z,8.6
2022-12-18T04:14:37.993Z,8.5
2022-12-18T04:20:14.793Z,8.4
2022-12-18T04:25:49.445Z,8.4
2022-12-18T04:31:24.386Z,8.3
2022-12-18T04:37:02.873Z,8.2
2022-12-18T04:42:37.599Z,8.2
2022-12-18T04:48:34.713Z,8.3
2022-12-18T04:54:08.707Z,8.2
2022-12-18T04:59:44.249Z,8.1
2022-12-18T05:05:22.018Z,8
2022-12-18T05:10:59.887Z,7.9
2022-12-18T05:16:35.794Z,7.9
2022-12-18T05:22:10.933Z,7.9
2022-12-18T05:27:48.514Z,7.9
2022-12-18T05:33:24.993Z,8
2022-12-18T05:38:59.869Z,8
2022-12-18T05:44:36.561Z,8.1
2022-12-18T05:50:11.430Z,8.1
2022-12-18T05:55:46.439Z,8
2022-12-18T06:01:23.689Z,7.9
2022-12-18T06:06:59.678Z,7.9
2022-12-18T06:12:35.169Z,8
2022-12-18T06:18:18.082Z,7.9
2022-12-18T06:23:53.419Z,7.9
2022-12-18T06:29:28.163Z,7.8
2022-12-18T06:35:09.262Z,7.8
2022-12-18T06:40:45.623Z,7.8
2022-12-18T06:46:46.831Z,7.8
2022-12-18T06:52:20.505Z,7.8
2022-12-18T06:57:56.734Z,7.8
2022-12-18T07:03:45.501Z,7.8
2022-12-18T07:09:30.724Z,7.8
2022-12-18T07:15:06.134Z,7.7
2022-12-18T07:20:41.721Z,7.8
2022-12-18T07:26:18.160Z,8
2022-12-18T07:31:53.692Z,8.1
2022-12-18T07:37:29.823Z,8.2
2022-12-18T07:43:13.519Z,8.3
2022-12-18T07:49:31.881Z,8.3
2022-12-18T07:55:05.046Z,8.4
2022-12-18T08:00:44.028Z,8.1
2022-12-18T08:06:24.050Z,8.6
2022-12-18T08:12:00.091Z,7.5
2022-12-18T08:17:36.800Z,7.9
2022-12-18T08:23:12.786Z,7.6
2022-12-18T08:28:48.072Z,8.1
2022-12-18T08:34:27.448Z,7.9
2022-12-18T08:40:04.873Z,7.8
2022-12-18T08:45:40.648Z,7.2
2022-12-18T08:51:17.599Z,7.2
2022-12-18T08:56:53.326Z,7.2
2022-12-18T09:02:28.608Z,7.3
2022-12-18T09:08:06.449Z,7.4
2022-12-18T09:13:42.503Z,7.8
2022-12-18T09:19:19.031Z,8.6
2022-12-18T09:25:12.407Z,8.7
2022-12-18T09:30:48.542Z,9
2022-12-18T09:36:30.905Z,9.2
2022-12-18T09:42:12.562Z,10.7
2022-12-18T09:47:52.130Z,10.9
2022-12-18T09:53:27.386Z,11.2
2022-12-18T09:59:03.020Z,11.5
2022-12-18T10:04:39.005Z,12.2
2022-12-18T10:10:15.044Z,12.6
2022-12-18T10:15:58.477Z,12.8
2022-12-18T10:21:47.336Z,13
2022-12-18T10:27:23.318Z,13.1
2022-12-18T10:32:59.488Z,13.2
2022-12-18T10:38:35.698Z,13.6
2022-12-18T10:44:13.315Z,13.7
2022-12-18T10:49:50.103Z,13.8
2022-12-18T10:55:26.359Z,14
2022-12-18T11:01:01.579Z,14.2
2022-12-18T11:06:37.130Z,14.4
2022-12-18T11:12:18.819Z,14.8
2022-12-18T11:17:54.643Z,15.1
2022-12-18T11:23:29.636Z,15.1
2022-12-18T11:29:27.349Z,14.7
2022-12-18T11:35:03.069Z,14.4
2022-12-18T11:40:41.214Z,15
2022-12-18T11:46:19.742Z,15.3
2022-12-18T11:51:59.873Z,15.6
2022-12-18T11:57:35.637Z,15.8
2022-12-18T12:03:17.094Z,16
2022-12-18T12:08:57.983Z,16.1
2022-12-18T12:14:34.911Z,16.2
2022-12-18T12:20:15.943Z,16.6
2022-12-18T12:25:51.892Z,16.9
2022-12-18T12:31:28.254Z,17.1
2022-12-18T12:37:05.989Z,17.3
2022-12-18T12:42:47.917Z,17.4
2022-12-18T12:48:23.698Z,17.6
2022-12-18T12:54:00.986Z,17.8
2022-12-18T12:59:37.805Z,17.7
2022-12-18T13:05:14.076Z,18.1
2022-12-18T13:10:51.923Z,18.1
2022-12-18T13:16:29.140Z,18.2
2022-12-18T13:22:04.965Z,18.3
2022-12-18T13:27:41.389Z,18.5
2022-12-18T13:33:19.414Z,18.9
2022-12-18T13:38:55.557Z,18.9
2022-12-18T13:44:40.528Z,18.7
2022-12-18T13:50:18.785Z,18.9
2022-12-18T13:55:57.941Z,19
2022-12-18T14:01:34.700Z,19.2
2022-12-18T14:07:12.055Z,19.6
2022-12-18T14:13:00.712Z,20
2022-12-18T14:18:45.001Z,20.4
2022-12-18T14:24:21.079Z,20.1
2022-12-18T14:29:56.370Z,18.5
2022-12-18T14:35:31.992Z,17.5
2022-12-18T14:41:08.692Z,16.9
2022-12-18T14:46:45.123Z,16.3
2022-12-18T14:52:20.871Z,16.1
2022-12-18T14:57:59.021Z,15.9
2022-12-18T15:03:34.164Z,15.6
2022-12-18T15:09:12.047Z,15.3
2022-12-18T15:14:48.262Z,14.7
2022-12-18T15:20:29.750Z,14.5
2022-12-18T15:26:06.913Z,14.4
2022-12-18T15:31:45.627Z,14.6
2022-12-18T15:37:21.158Z,14.3
2022-12-18T15:43:02.208Z,14.1
2022-12-18T15:48:37.659Z,13.9
2022-12-18T15:54:13.865Z,13.6
2022-12-18T15:59:49.434Z,13.4
2022-12-18T16:05:25.626Z,13.2
2022-12-18T16:11:00.620Z,12.8
2022-12-18T16:16:36.530Z,12.7
2022-12-18T16:22:12.222Z,12.3
2022-12-18T16:27:49.740Z,12.1
2022-12-18T16:33:27.227Z,11.9
2022-12-18T16:39:05.310Z,11.9
2022-12-18T16:44:41.050Z,11.5
2022-12-18T16:50:19.782Z,11.3
2022-12-18T16:55:55.302Z,11.1
2022-12-18T17:01:32.342Z,11.1
2022-12-18T17:07:10.912Z,11
2022-12-18T17:12:46.693Z,11.2
2022-12-18T17:18:21.594Z,10.8
2022-12-18T17:23:57.328Z,10.6
2022-12-18T17:29:33.600Z,10.5
2022-12-18T17:35:08.870Z,10.2
2022-12-18T17:40:46.519Z,10.4
2022-12-18T17:46:28.066Z,10.3
2022-12-18T17:52:04.264Z,10.1
2022-12-18T17:57:40.315Z,9.8
2022-12-18T18:03:22.619Z,10.5
2022-12-18T18:09:00.136Z,11
2022-12-18T18:14:37.598Z,11.1
2022-12-18T18:20:17.811Z,11.1
2022-12-18T18:25:58.813Z,11.1
2022-12-18T18:31:40.171Z,11.1
2022-12-18T18:37:17.814Z,11.2
2022-12-18T18:42:54.261Z,11.3
2022-12-18T18:48:35.413Z,11.4
2022-12-18T18:54:19.553Z,11.4
2022-12-18T18:59:55.377Z,11.4
2022-12-18T19:05:31.100Z,11.5
2022-12-18T19:11:07.170Z,11.6
2022-12-18T19:16:43.022Z,11.6
2022-12-18T19:22:21.581Z,11.5
2022-12-18T19:28:02.898Z,11.5
2022-12-18T19:33:57.525Z,11.5
2022-12-18T19:39:34.089Z,11.4
2022-12-18T19:45:09.246Z,11.3
2022-12-18T19:50:46.405Z,11.4
2022-12-18T19:56:22.677Z,11.3
2022-12-18T20:02:00.018Z,11.3
2022-12-18T20:07:40.675Z,11.2
2022-12-18T20:13:28.289Z,11.1
2022-12-18T20:19:10.744Z,11
2022-12-18T20:24:49.954Z,11
2022-12-18T20:30:29.906Z,11
2022-12-18T20:36:05.413Z,10.9
2022-12-18T20:41:46.181Z,10.9
2022-12-18T20:47:43.693Z,10.9
2022-12-18T20:53:17.169Z,10.9
2022-12-18T20:58:55.976Z,10.8
2022-12-18T21:04:39.555Z,10.8
2022-12-18T21:10:18.519Z,10.8
2022-12-18T21:15:55.894Z,10.8
2022-12-18T21:21:33.051Z,10.8
2022-12-18T21:27:17.631Z,10.7
2022-12-18T21:32:56.151Z,10.7
2022-12-18T21:38:32.699Z,10.8
2022-12-18T21:44:10.785Z,10.8
2022-12-18T21:49:47.471Z,10.7
2022-12-18T21:55:23.841Z,10.6
2022-12-18T22:00:59.056Z,10.5
2022-12-18T22:06:37.385Z,10.6
2022-12-18T22:12:14.586Z,10.6
2022-12-18T22:17:49.995Z,10.7
2022-12-18T22:23:35.752Z,10.7
2022-12-18T22:29:13.253Z,10.6
2022-12-18T22:34:49.065Z,10.5
2022-12-18T22:40:28.382Z,10.5
2022-12-18T22:46:05.129Z,10.4
2022-12-18T22:51:41.627Z,10.3
2022-12-18T22:57:17.539Z,10.3
2022-12-18T23:02:59.632Z,10.3
2022-12-18T23:08:40.383Z,10.3
2022-12-18T23:14:16.504Z,10.3
2022-12-18T23:19:52.472Z,10.3
2022-12-18T23:25:27.356Z,10.3
2022-12-18T23:31:06.233Z,10.3
2022-12-18T23:36:45.417Z,10.3
2022-12-18T23:42:31.505Z,10.2
2022-12-18T23:48:28.906Z,10.3
2022-12-18T23:54:03.361Z,10.3
2022-12-18T23:59:38.251Z,10.2
